createdAt,value
2023-01-26T00:00:19.668Z,1024.21
2023-01-26T00:00:40.892Z,1024.62
2023-01-26T00:01:07.883Z,1024.62
2023-01-26T00:01:38.487Z,1024.62
2023-01-26T00:02:11.400Z,1024.41
2023-01-26T00:02:36.585Z,1024.31
2023-01-26T00:02:58.914Z,1024.31
2023-01-26T00:03:33.213Z,1024.31
2023-01-26T00:03:48.082Z,1024.41
2023-01-26T00:04:18.594Z,1024.41
2023-01-26T00:04:40.631Z,1024.41
2023-01-26T00:05:07.771Z,1024.41
2023-01-26T00:05:38.549Z,1024.41
2023-01-26T00:06:10.869Z,1024.62
2023-01-26T00:06:27.373Z,1024.62
2023-01-26T00:06:58.591Z,1024.41
2023-01-26T00:07:31.161Z,1024.41
2023-01-26T00:07:48.079Z,1024.31
2023-01-26T00:08:18.709Z,1024.31
2023-01-26T00:08:40.049Z,1024.41
2023-01-26T00:09:07.595Z,1024.41
2023-01-26T00:09:38.463Z,1024.41
2023-01-26T00:10:11.755Z,1024.52
2023-01-26T00:10:27.504Z,1024.52
2023-01-26T00:10:58.963Z,1024.11
2023-01-26T00:11:30.883Z,1024.11
2023-01-26T00:11:48.265Z,1024.31
2023-01-26T00:12:18.678Z,1024.31
2023-01-26T00:12:40.202Z,1024.41
2023-01-26T00:13:07.606Z,1024.41
2023-01-26T00:13:38.501Z,1024.41
2023-01-26T00:14:10.816Z,1024.41
2023-01-26T00:14:27.318Z,1024.41
2023-01-26T00:14:59.045Z,1024.31
2023-01-26T00:15:32.479Z,1024.31
2023-01-26T00:16:05.769Z,1024.52
2023-01-26T00:16:35.290Z,1024.52
2023-01-26T00:17:07.919Z,1024.21
2023-01-26T00:17:38.655Z,1024.21
2023-01-26T00:18:11.878Z,1024.21
2023-01-26T00:18:27.687Z,1024.21
2023-01-26T00:18:59.026Z,1024.21
2023-01-26T00:19:31.488Z,1024.21
2023-01-26T00:19:48.010Z,1024.31
2023-01-26T00:20:20.549Z,1024.31
2023-01-26T00:20:41.091Z,1024.11
2023-01-26T00:21:07.931Z,1024.11
2023-01-26T00:21:39.031Z,1024.11
2023-01-26T00:22:12.095Z,1024.31
2023-01-26T00:22:36.842Z,1024.21
2023-01-26T00:22:59.092Z,1024.21
2023-01-26T00:23:31.312Z,1024.21
2023-01-26T00:23:48.525Z,1024.31
2023-01-26T00:24:18.723Z,1024.31
2023-01-26T00:24:40.629Z,1024.31
2023-01-26T00:25:07.773Z,1024.31
2023-01-26T00:25:39.112Z,1024.31
2023-01-26T00:26:10.929Z,1024.41
2023-01-26T00:26:27.392Z,1024.41
2023-01-26T00:26:58.641Z,1024.11
2023-01-26T00:27:30.966Z,1024.11
2023-01-26T00:27:47.995Z,1024.11
2023-01-26T00:28:18.717Z,1024.11
2023-01-26T00:28:40.753Z,1024.21
2023-01-26T00:29:07.400Z,1024.21
2023-01-26T00:29:38.579Z,1024.21
2023-01-26T00:30:12.447Z,1024.21
2023-01-26T00:30:27.436Z,1024.21
2023-01-26T00:30:59.088Z,1024.21
2023-01-26T00:31:31.110Z,1024.21
2023-01-26T00:31:48.155Z,1024.01
2023-01-26T00:32:18.629Z,1024.01
2023-01-26T00:32:40.418Z,1024.21
2023-01-26T00:33:07.418Z,1024.21
2023-01-26T00:33:38.655Z,1024.21
2023-01-26T00:34:11.024Z,1024.01
2023-01-26T00:34:36.670Z,1024.11
2023-01-26T00:34:58.679Z,1024.11
2023-01-26T00:35:31.447Z,1024.11
2023-01-26T00:35:47.999Z,1023.94
2023-01-26T00:36:18.887Z,1023.94
2023-01-26T00:36:40.193Z,1024.01
2023-01-26T00:37:07.535Z,1024.01
2023-01-26T00:37:40.422Z,1024.01
2023-01-26T00:38:10.940Z,1024.21
2023-01-26T00:38:27.379Z,1024.21
2023-01-26T00:38:58.724Z,1023.84
2023-01-26T00:39:31.022Z,1023.84
2023-01-26T00:39:48.159Z,1024.11
2023-01-26T00:40:19.080Z,1024.11
2023-01-26T00:40:40.112Z,1024.01
2023-01-26T00:41:07.476Z,1024.01
2023-01-26T00:41:38.656Z,1024.01
2023-01-26T00:42:11.140Z,1024.11
2023-01-26T00:42:27.445Z,1024.11
2023-01-26T00:42:58.934Z,1023.94
2023-01-26T00:43:31.158Z,1023.94
2023-01-26T00:43:48.345Z,1024.11
2023-01-26T00:44:18.794Z,1024.11
2023-01-26T00:44:40.203Z,1024.21
2023-01-26T00:45:08.451Z,1024.21
2023-01-26T00:45:38.620Z,1024.21
2023-01-26T00:46:10.912Z,1023.94
2023-01-26T00:46:27.469Z,1023.94
2023-01-26T00:46:58.645Z,1023.84
2023-01-26T00:47:30.928Z,1023.84
2023-01-26T00:47:48.041Z,1023.84
2023-01-26T00:48:18.707Z,1023.84
2023-01-26T00:48:40.120Z,1023.94
2023-01-26T00:49:07.426Z,1023.94
2023-01-26T00:49:38.552Z,1023.94
2023-01-26T00:50:11.689Z,1023.94
2023-01-26T00:50:27.452Z,1023.94
2023-01-26T00:50:58.969Z,1023.84
2023-01-26T00:51:31.011Z,1023.84
2023-01-26T00:52:02.843Z,1024.01
2023-01-26T00:52:35.219Z,1024.01
2023-01-26T00:53:07.527Z,1024.11
2023-01-26T00:53:38.580Z,1024.11
2023-01-26T00:54:11.188Z,1024.11
2023-01-26T00:54:27.498Z,1024.11
2023-01-26T00:54:58.820Z,1024.21
2023-01-26T00:55:31.527Z,1024.21
2023-01-26T00:56:02.831Z,1023.94
2023-01-26T00:56:34.813Z,1023.94
2023-01-26T00:57:07.614Z,1023.94
2023-01-26T00:57:38.493Z,1023.94
2023-01-26T00:58:10.927Z,1023.94
2023-01-26T00:58:27.449Z,1023.94
2023-01-26T00:58:58.629Z,1023.74
2023-01-26T00:59:31.030Z,1023.74
2023-01-26T01:00:05.067Z,1023.84
2023-01-26T01:00:34.915Z,1023.84
2023-01-26T01:01:08.035Z,1024.21
2023-01-26T01:01:38.570Z,1024.21
2023-01-26T01:02:10.918Z,1024.11
2023-01-26T01:02:27.349Z,1024.11
2023-01-26T01:02:58.693Z,1023.94
2023-01-26T01:03:31.082Z,1023.94
2023-01-26T01:04:03.086Z,1023.94
2023-01-26T01:04:34.839Z,1023.94
2023-01-26T01:05:08.027Z,1023.84
2023-01-26T01:05:38.624Z,1023.84
2023-01-26T01:06:10.944Z,1024.01
2023-01-26T01:06:27.410Z,1024.01
2023-01-26T01:06:58.989Z,1023.94
2023-01-26T01:07:31.053Z,1023.94
2023-01-26T01:08:02.776Z,1024.21
2023-01-26T01:08:34.687Z,1024.21
2023-01-26T01:09:07.443Z,1024.11
2023-01-26T01:09:38.551Z,1024.11
2023-01-26T01:10:11.675Z,1024.01
2023-01-26T01:10:27.427Z,1024.01
2023-01-26T01:10:59.693Z,1023.94
2023-01-26T01:11:31.317Z,1023.94
2023-01-26T01:12:02.782Z,1024.01
2023-01-26T01:12:34.841Z,1024.01
2023-01-26T01:13:07.519Z,1023.84
2023-01-26T01:13:38.730Z,1023.84
2023-01-26T01:14:10.905Z,1023.94
2023-01-26T01:14:27.681Z,1023.94
2023-01-26T01:14:58.697Z,1023.94
2023-01-26T01:15:32.189Z,1023.94
2023-01-26T01:16:03.066Z,1024.01
2023-01-26T01:16:34.773Z,1024.01
2023-01-26T01:17:07.683Z,1023.94
2023-01-26T01:17:38.555Z,1023.94
2023-01-26T01:18:11.111Z,1024.01
2023-01-26T01:18:27.426Z,1024.01
2023-01-26T01:18:58.682Z,1023.74
2023-01-26T01:19:31.116Z,1023.74
2023-01-26T01:20:04.737Z,1023.94
2023-01-26T01:20:34.852Z,1023.94
2023-01-26T01:21:07.443Z,1024.01
2023-01-26T01:21:38.558Z,1024.01
2023-01-26T01:22:10.966Z,1023.74
2023-01-26T01:22:27.399Z,1023.74
2023-01-26T01:22:58.621Z,1023.84
2023-01-26T01:23:31.053Z,1023.84
2023-01-26T01:24:02.866Z,1024.01
2023-01-26T01:24:34.742Z,1024.01
2023-01-26T01:25:07.773Z,1024.01
2023-01-26T01:25:38.558Z,1024.01
2023-01-26T01:26:10.968Z,1023.94
2023-01-26T01:26:27.436Z,1023.94
2023-01-26T01:26:58.827Z,1024.01
2023-01-26T01:27:31.000Z,1024.01
2023-01-26T01:28:02.956Z,1023.94
2023-01-26T01:28:34.845Z,1023.94
2023-01-26T01:29:07.989Z,1023.94
2023-01-26T01:29:38.706Z,1023.94
2023-01-26T01:30:12.261Z,1023.84
2023-01-26T01:30:27.667Z,1023.84
2023-01-26T01:30:59.269Z,1023.94
2023-01-26T01:31:31.385Z,1023.94
2023-01-26T01:32:02.872Z,1024.11
2023-01-26T01:32:34.804Z,1024.11
2023-01-26T01:33:07.492Z,1023.94
2023-01-26T01:33:38.673Z,1023.94
2023-01-26T01:34:10.928Z,1024.01
2023-01-26T01:34:27.376Z,1024.01
2023-01-26T01:34:59.234Z,1023.94
2023-01-26T01:35:31.790Z,1023.94
2023-01-26T01:35:48.210Z,1023.84
2023-01-26T01:36:19.855Z,1023.84
2023-01-26T01:36:41.645Z,1024.11
2023-01-26T01:37:08.747Z,1024.11
2023-01-26T01:37:39.196Z,1024.11
2023-01-26T01:38:12.096Z,1023.94
2023-01-26T01:38:28.784Z,1023.94
2023-01-26T01:38:59.432Z,1023.84
2023-01-26T01:39:31.364Z,1023.84
2023-01-26T01:39:48.255Z,1023.94
2023-01-26T01:40:19.598Z,1023.94
2023-01-26T01:40:40.984Z,1023.84
2023-01-26T01:41:07.551Z,1023.84
2023-01-26T01:41:38.603Z,1023.84
2023-01-26T01:42:10.984Z,1023.84
2023-01-26T01:42:27.461Z,1023.84
2023-01-26T01:42:58.766Z,1023.94
2023-01-26T01:43:31.049Z,1023.94
2023-01-26T01:44:02.822Z,1023.84
2023-01-26T01:44:34.794Z,1023.84
2023-01-26T01:45:08.315Z,1023.84
2023-01-26T01:45:39.137Z,1023.84
2023-01-26T01:46:11.337Z,1023.84
2023-01-26T01:46:27.636Z,1023.84
2023-01-26T01:46:58.802Z,1023.53
2023-01-26T01:47:31.312Z,1023.53
2023-01-26T01:48:02.950Z,1023.94
2023-01-26T01:48:34.751Z,1023.94
2023-01-26T01:49:07.434Z,1023.84
2023-01-26T01:49:38.551Z,1023.84
2023-01-26T01:50:11.756Z,1023.94
2023-01-26T01:50:27.452Z,1023.94
2023-01-26T01:50:59.181Z,1023.84
2023-01-26T01:51:31.144Z,1023.84
2023-01-26T01:52:03.056Z,1023.64
2023-01-26T01:52:34.841Z,1023.64
2023-01-26T01:53:07.602Z,1023.64
2023-01-26T01:53:38.741Z,1023.64
2023-01-26T01:54:11.057Z,1023.74
2023-01-26T01:54:27.520Z,1023.74
2023-01-26T01:54:58.764Z,1023.74
2023-01-26T01:55:31.521Z,1023.74
2023-01-26T01:56:03.279Z,1023.84
2023-01-26T01:56:34.776Z,1023.84
2023-01-26T01:57:07.585Z,1023.64
2023-01-26T01:57:38.601Z,1023.64
2023-01-26T01:58:10.857Z,1023.64
2023-01-26T01:58:27.418Z,1023.64
2023-01-26T01:58:58.746Z,1023.64
2023-01-26T01:59:31.292Z,1023.64
2023-01-26T02:00:04.793Z,1023.64
2023-01-26T02:00:34.970Z,1023.64
2023-01-26T02:01:07.881Z,1023.74
2023-01-26T02:01:38.605Z,1023.74
2023-01-26T02:02:11.030Z,1023.84
2023-01-26T02:02:27.412Z,1023.84
2023-01-26T02:02:59.092Z,1023.64
2023-01-26T02:03:31.041Z,1023.64
2023-01-26T02:04:03.108Z,1023.43
2023-01-26T02:04:34.798Z,1023.43
2023-01-26T02:05:07.945Z,1023.84
2023-01-26T02:05:38.676Z,1023.84
2023-01-26T02:06:10.958Z,1023.64
2023-01-26T02:06:27.670Z,1023.64
2023-01-26T02:06:58.785Z,1023.64
2023-01-26T02:07:31.342Z,1023.64
2023-01-26T02:08:02.924Z,1023.53
2023-01-26T02:08:36.746Z,1023.53
2023-01-26T02:09:07.916Z,1023.74
2023-01-26T02:09:38.595Z,1023.74
2023-01-26T02:10:11.962Z,1023.64
2023-01-26T02:10:27.701Z,1023.64
2023-01-26T02:11:00.262Z,1023.64
2023-01-26T02:11:31.959Z,1023.64
2023-01-26T02:12:03.013Z,1023.64
2023-01-26T02:12:36.242Z,1023.64
2023-01-26T02:13:08.517Z,1023.43
2023-01-26T02:13:40.172Z,1023.43
2023-01-26T02:14:11.017Z,1023.53
2023-01-26T02:14:28.994Z,1023.53
2023-01-26T02:14:59.841Z,1023.64
2023-01-26T02:15:32.426Z,1023.64
2023-01-26T02:15:49.726Z,1023.74
2023-01-26T02:16:19.703Z,1023.74
2023-01-26T02:16:42.431Z,1023.53
2023-01-26T02:17:09.937Z,1023.53
2023-01-26T02:17:39.489Z,1023.53
2023-01-26T02:18:10.947Z,1023.74
2023-01-26T02:18:29.141Z,1023.74
2023-01-26T02:18:59.671Z,1023.53
2023-01-26T02:19:31.326Z,1023.53
2023-01-26T02:19:48.609Z,1023.74
2023-01-26T02:20:19.747Z,1023.74
2023-01-26T02:20:43.511Z,1023.53
2023-01-26T02:21:08.481Z,1023.53
2023-01-26T02:21:39.408Z,1023.53
2023-01-26T02:22:11.412Z,1023.33
2023-01-26T02:22:36.959Z,1023.74
2023-01-26T02:23:00.853Z,1023.74
2023-01-26T02:23:31.201Z,1023.74
2023-01-26T02:23:49.447Z,1023.53
2023-01-26T02:24:18.707Z,1023.53
2023-01-26T02:24:40.789Z,1023.53
2023-01-26T02:25:07.875Z,1023.53
2023-01-26T02:25:38.652Z,1023.53
2023-01-26T02:26:10.951Z,1023.33
2023-01-26T02:26:27.364Z,1023.33
2023-01-26T02:26:59.291Z,1023.33
2023-01-26T02:27:31.582Z,1023.33
2023-01-26T02:27:47.770Z,1023.23
2023-01-26T02:28:18.697Z,1023.23
2023-01-26T02:28:40.780Z,1023.53
2023-01-26T02:29:07.591Z,1023.53
2023-01-26T02:29:38.595Z,1023.53
2023-01-26T02:30:12.337Z,1023.43
2023-01-26T02:30:28.605Z,1023.43
2023-01-26T02:31:00.223Z,1023.33
2023-01-26T02:31:33.141Z,1023.33
2023-01-26T02:31:49.057Z,1023.33
2023-01-26T02:32:20.056Z,1023.33
2023-01-26T02:32:41.700Z,1023.43
2023-01-26T02:33:08.706Z,1023.43
2023-01-26T02:33:39.758Z,1023.43
2023-01-26T02:34:11.832Z,1023.53
2023-01-26T02:34:28.525Z,1023.53
2023-01-26T02:35:00.090Z,1023.53
2023-01-26T02:35:33.042Z,1023.53
2023-01-26T02:35:48.472Z,1023.03
2023-01-26T02:36:19.468Z,1023.03
2023-01-26T02:36:41.795Z,1023.33
2023-01-26T02:37:08.090Z,1023.33
2023-01-26T02:37:40.106Z,1023.33
2023-01-26T02:38:12.119Z,1023.43
2023-01-26T02:38:28.606Z,1023.43
2023-01-26T02:39:00.456Z,1023.43
2023-01-26T02:39:32.621Z,1023.43
2023-01-26T02:40:08.296Z,1023.33
2023-01-26T02:40:37.975Z,1023.33
2023-01-26T02:41:09.349Z,1023.13
2023-01-26T02:41:40.317Z,1023.13
2023-01-26T02:42:12.043Z,1023.33
2023-01-26T02:42:28.940Z,1023.33
2023-01-26T02:43:00.191Z,1023.23
2023-01-26T02:43:31.804Z,1023.23
2023-01-26T02:43:49.087Z,1023.13
2023-01-26T02:44:19.096Z,1023.13
2023-01-26T02:44:41.932Z,1023.43
2023-01-26T02:45:09.818Z,1023.43
2023-01-26T02:45:41.437Z,1023.43
2023-01-26T02:46:12.185Z,1023.43
2023-01-26T02:46:28.514Z,1023.43
2023-01-26T02:46:59.594Z,1023.43
2023-01-26T02:47:32.778Z,1023.43
2023-01-26T02:47:50.384Z,1023.33
2023-01-26T02:48:19.997Z,1023.33
2023-01-26T02:48:42.554Z,1023.13
2023-01-26T02:49:10.667Z,1023.13
2023-01-26T02:49:40.141Z,1023.13
2023-01-26T02:50:13.704Z,1023.33
2023-01-26T02:50:38.129Z,1023.23
2023-01-26T02:51:00.221Z,1023.23
2023-01-26T02:51:32.572Z,1023.23
2023-01-26T02:52:03.683Z,1023.13
2023-01-26T02:52:35.867Z,1023.13
2023-01-26T02:53:11.100Z,1023.13
2023-01-26T02:53:41.953Z,1023.13
2023-01-26T02:54:11.857Z,1023.03
2023-01-26T02:54:37.864Z,1023.13
2023-01-26T02:55:01.075Z,1023.13
2023-01-26T02:55:32.416Z,1023.13
2023-01-26T02:55:50.265Z,1023.33
2023-01-26T02:56:22.082Z,1023.33
2023-01-26T02:56:41.987Z,1023.23
2023-01-26T02:57:09.492Z,1023.23
2023-01-26T02:57:40.705Z,1023.23
2023-01-26T02:58:14.049Z,1023.03
2023-01-26T02:58:41.325Z,1023.03
2023-01-26T02:59:00.477Z,1023.03
2023-01-26T02:59:34.055Z,1023.03
2023-01-26T03:00:07.982Z,1023.03
2023-01-26T03:00:36.191Z,1023.03
2023-01-26T03:01:09.148Z,1023.03
2023-01-26T03:01:39.587Z,1023.03
2023-01-26T03:02:12.644Z,1023.23
2023-01-26T03:02:28.555Z,1023.23
2023-01-26T03:02:59.611Z,1023.23
2023-01-26T03:03:32.387Z,1023.23
2023-01-26T03:03:48.833Z,1023.13
2023-01-26T03:04:19.968Z,1023.13
2023-01-26T03:04:42.245Z,1023.13
2023-01-26T03:05:09.458Z,1023.13
2023-01-26T03:05:39.967Z,1023.13
2023-01-26T03:06:12.096Z,1023.13
2023-01-26T03:06:28.115Z,1023.13
2023-01-26T03:06:59.476Z,1023.03
2023-01-26T03:07:32.249Z,1023.03
2023-01-26T03:07:49.089Z,1023.13
2023-01-26T03:08:19.588Z,1023.13
2023-01-26T03:08:41.660Z,1022.92
2023-01-26T03:09:08.164Z,1022.92
2023-01-26T03:09:39.917Z,1022.92
2023-01-26T03:10:13.186Z,1022.92
2023-01-26T03:10:28.533Z,1022.92
2023-01-26T03:11:00.207Z,1022.82
2023-01-26T03:11:32.069Z,1022.82
2023-01-26T03:11:49.056Z,1023.13
2023-01-26T03:12:19.672Z,1023.13
2023-01-26T03:12:42.008Z,1023.03
2023-01-26T03:13:08.305Z,1023.03
2023-01-26T03:13:39.596Z,1023.03
2023-01-26T03:14:11.587Z,1023.03
2023-01-26T03:14:28.452Z,1023.03
2023-01-26T03:14:59.851Z,1022.82
2023-01-26T03:15:33.849Z,1022.82
2023-01-26T03:15:49.013Z,1022.92
2023-01-26T03:16:20.295Z,1022.92
2023-01-26T03:16:42.265Z,1022.92
2023-01-26T03:17:08.064Z,1022.92
2023-01-26T03:17:38.788Z,1022.92
2023-01-26T03:18:11.162Z,1022.92
2023-01-26T03:18:27.589Z,1022.92
2023-01-26T03:18:59.500Z,1022.92
2023-01-26T03:19:31.059Z,1022.92
2023-01-26T03:19:47.954Z,1022.82
2023-01-26T03:20:19.718Z,1022.82
2023-01-26T03:20:40.701Z,1022.72
2023-01-26T03:21:07.446Z,1022.72
2023-01-26T03:21:38.814Z,1022.72
2023-01-26T03:22:10.935Z,1022.82
2023-01-26T03:22:27.533Z,1022.82
2023-01-26T03:22:58.681Z,1023.13
2023-01-26T03:23:31.110Z,1023.13
2023-01-26T03:23:47.919Z,1023.03
2023-01-26T03:24:18.813Z,1023.03
2023-01-26T03:24:40.737Z,1022.92
2023-01-26T03:25:07.938Z,1022.92
2023-01-26T03:25:38.793Z,1022.92
2023-01-26T03:26:10.964Z,1022.72
2023-01-26T03:26:27.416Z,1022.72
2023-01-26T03:26:58.763Z,1023.03
2023-01-26T03:27:31.065Z,1023.03
2023-01-26T03:27:47.765Z,1022.92
2023-01-26T03:28:18.945Z,1022.92
2023-01-26T03:28:41.101Z,1022.92
2023-01-26T03:29:07.452Z,1022.92
2023-01-26T03:29:38.700Z,1022.92
2023-01-26T03:30:12.466Z,1022.92
2023-01-26T03:30:27.578Z,1022.92
2023-01-26T03:30:59.168Z,1022.82
2023-01-26T03:31:31.367Z,1022.82
2023-01-26T03:31:47.660Z,1022.82
2023-01-26T03:32:18.979Z,1022.82
2023-01-26T03:32:40.679Z,1022.92
2023-01-26T03:33:07.494Z,1022.92
2023-01-26T03:33:38.925Z,1022.92
2023-01-26T03:34:11.027Z,1022.92
2023-01-26T03:34:27.449Z,1022.92
2023-01-26T03:34:58.763Z,1022.82
2023-01-26T03:35:31.650Z,1022.82
2023-01-26T03:35:47.673Z,1022.92
2023-01-26T03:36:18.938Z,1022.92
2023-01-26T03:36:40.865Z,1022.92
2023-01-26T03:37:07.675Z,1022.92
2023-01-26T03:37:38.796Z,1022.92
2023-01-26T03:38:11.413Z,1022.92
2023-01-26T03:38:36.541Z,1022.82
2023-01-26T03:38:58.728Z,1022.82
2023-01-26T03:39:31.238Z,1022.82
2023-01-26T03:39:48.191Z,1022.62
2023-01-26T03:40:19.180Z,1022.62
2023-01-26T03:40:40.725Z,1022.72
2023-01-26T03:41:07.854Z,1022.72
2023-01-26T03:41:38.794Z,1022.72
2023-01-26T03:42:11.011Z,1022.82
2023-01-26T03:42:27.420Z,1022.82
2023-01-26T03:42:58.648Z,1022.82
2023-01-26T03:43:31.215Z,1022.82
2023-01-26T03:43:47.759Z,1022.72
2023-01-26T03:44:18.866Z,1022.72
2023-01-26T03:44:40.673Z,1022.72
2023-01-26T03:45:08.426Z,1022.72
2023-01-26T03:45:38.840Z,1022.72
2023-01-26T03:46:11.382Z,1022.62
2023-01-26T03:46:27.512Z,1022.62
2023-01-26T03:46:58.818Z,1022.82
2023-01-26T03:47:31.239Z,1022.82
2023-01-26T03:47:47.906Z,1022.82
2023-01-26T03:48:18.946Z,1022.82
2023-01-26T03:48:40.737Z,1022.72
2023-01-26T03:49:07.508Z,1022.72
2023-01-26T03:49:38.700Z,1022.72
2023-01-26T03:50:12.395Z,1022.82
2023-01-26T03:50:36.712Z,1022.62
2023-01-26T03:50:59.022Z,1022.62
2023-01-26T03:51:31.152Z,1022.62
2023-01-26T03:51:47.766Z,1022.92
2023-01-26T03:52:18.781Z,1022.92
2023-01-26T03:52:40.791Z,1022.72
2023-01-26T03:53:07.575Z,1022.72
2023-01-26T03:53:38.686Z,1022.72
2023-01-26T03:54:11.163Z,1022.62
2023-01-26T03:54:27.483Z,1022.62
2023-01-26T03:54:58.799Z,1022.52
2023-01-26T03:55:32.038Z,1022.52
2023-01-26T03:55:47.830Z,1022.82
2023-01-26T03:56:18.868Z,1022.82
2023-01-26T03:56:40.748Z,1022.82
2023-01-26T03:57:07.540Z,1022.82
2023-01-26T03:57:38.783Z,1022.82
2023-01-26T03:58:11.131Z,1022.72
2023-01-26T03:58:27.543Z,1022.72
2023-01-26T03:58:58.798Z,1022.82
2023-01-26T03:59:31.265Z,1022.82
2023-01-26T03:59:47.682Z,1022.62
2023-01-26T04:00:19.800Z,1022.62
2023-01-26T04:00:40.746Z,1022.82
2023-01-26T04:01:08.011Z,1022.82
2023-01-26T04:01:38.792Z,1022.82
2023-01-26T04:02:11.119Z,1022.72
2023-01-26T04:02:27.520Z,1022.72
2023-01-26T04:02:58.773Z,1022.82
2023-01-26T04:03:31.121Z,1022.82
2023-01-26T04:03:47.826Z,1022.82
2023-01-26T04:04:19.182Z,1022.82
2023-01-26T04:04:40.757Z,1022.82
2023-01-26T04:05:07.828Z,1022.82
2023-01-26T04:05:38.811Z,1022.82
2023-01-26T04:06:15.558Z,1022.62
2023-01-26T04:06:27.597Z,1022.62
2023-01-26T04:06:58.779Z,1022.62
2023-01-26T04:07:31.393Z,1022.62
2023-01-26T04:07:47.855Z,1022.72
2023-01-26T04:08:18.840Z,1022.72
2023-01-26T04:08:40.732Z,1022.72
2023-01-26T04:09:07.560Z,1022.72
2023-01-26T04:09:38.755Z,1022.72
2023-01-26T04:10:11.759Z,1022.82
2023-01-26T04:10:27.463Z,1022.82
2023-01-26T04:11:03.145Z,1022.62
2023-01-26T04:11:31.175Z,1022.62
2023-01-26T04:11:47.509Z,1022.72
2023-01-26T04:12:18.804Z,1022.72
2023-01-26T04:12:40.780Z,1022.82
2023-01-26T04:13:07.451Z,1022.82
2023-01-26T04:13:38.871Z,1022.82
2023-01-26T04:14:11.110Z,1022.62
2023-01-26T04:14:27.606Z,1022.62
2023-01-26T04:14:58.814Z,1022.72
2023-01-26T04:15:32.107Z,1022.72
2023-01-26T04:15:47.593Z,1022.62
2023-01-26T04:16:18.920Z,1022.62
2023-01-26T04:16:41.004Z,1022.62
2023-01-26T04:17:07.606Z,1022.62
2023-01-26T04:17:38.861Z,1022.62
2023-01-26T04:18:10.955Z,1022.82
2023-01-26T04:18:27.635Z,1022.82
2023-01-26T04:18:58.718Z,1022.82
2023-01-26T04:19:31.413Z,1022.82
2023-01-26T04:19:47.700Z,1022.62
2023-01-26T04:20:19.393Z,1022.62
2023-01-26T04:20:40.939Z,1022.62
2023-01-26T04:21:07.481Z,1022.62
2023-01-26T04:21:38.783Z,1022.62
2023-01-26T04:22:11.215Z,1022.72
2023-01-26T04:22:27.840Z,1022.72
2023-01-26T04:22:58.736Z,1022.72
2023-01-26T04:23:31.181Z,1022.72
2023-01-26T04:23:47.750Z,1022.72
2023-01-26T04:24:18.833Z,1022.72
2023-01-26T04:24:40.695Z,1022.62
2023-01-26T04:25:07.874Z,1022.62
2023-01-26T04:25:38.916Z,1022.62
2023-01-26T04:26:11.084Z,1022.62
2023-01-26T04:26:27.744Z,1022.62
2023-01-26T04:26:58.872Z,1022.52
2023-01-26T04:27:31.469Z,1022.52
2023-01-26T04:27:47.942Z,1022.52
2023-01-26T04:28:18.949Z,1022.52
2023-01-26T04:28:40.740Z,1022.62
2023-01-26T04:29:07.568Z,1022.62
2023-01-26T04:29:38.716Z,1022.62
2023-01-26T04:30:12.383Z,1022.62
2023-01-26T04:30:27.755Z,1022.62
2023-01-26T04:30:59.228Z,1022.62
2023-01-26T04:31:31.914Z,1022.62
2023-01-26T04:31:48.291Z,1022.82
2023-01-26T04:32:19.057Z,1022.82
2023-01-26T04:32:40.890Z,1022.82
2023-01-26T04:33:07.442Z,1022.82
2023-01-26T04:33:38.740Z,1022.82
2023-01-26T04:34:11.108Z,1022.72
2023-01-26T04:34:27.609Z,1022.72
2023-01-26T04:34:58.790Z,1022.62
2023-01-26T04:35:31.395Z,1022.62
2023-01-26T04:35:47.853Z,1022.72
2023-01-26T04:36:18.790Z,1022.72
2023-01-26T04:36:40.614Z,1022.72
2023-01-26T04:37:07.456Z,1022.72
2023-01-26T04:37:38.823Z,1022.72
2023-01-26T04:38:11.224Z,1022.62
2023-01-26T04:38:27.654Z,1022.62
2023-01-26T04:38:58.752Z,1022.62
2023-01-26T04:39:31.093Z,1022.62
2023-01-26T04:39:47.750Z,1022.82
2023-01-26T04:40:19.388Z,1022.82
2023-01-26T04:40:40.768Z,1022.62
2023-01-26T04:41:07.532Z,1022.62
2023-01-26T04:41:41.309Z,1022.62
2023-01-26T04:42:11.636Z,1022.52
2023-01-26T04:42:36.954Z,1022.62
2023-01-26T04:42:58.760Z,1022.62
2023-01-26T04:43:31.275Z,1022.62
2023-01-26T04:43:48.066Z,1022.62
2023-01-26T04:44:18.865Z,1022.62
2023-01-26T04:44:40.897Z,1022.72
2023-01-26T04:45:08.484Z,1022.72
2023-01-26T04:45:39.057Z,1022.72
2023-01-26T04:46:11.051Z,1022.82
2023-01-26T04:46:27.618Z,1022.82
2023-01-26T04:46:58.963Z,1022.72
2023-01-26T04:47:31.488Z,1022.72
2023-01-26T04:47:47.949Z,1022.72
2023-01-26T04:48:18.870Z,1022.72
2023-01-26T04:48:40.908Z,1022.72
2023-01-26T04:49:07.548Z,1022.72
2023-01-26T04:49:39.186Z,1022.72
2023-01-26T04:50:11.955Z,1022.62
2023-01-26T04:50:27.542Z,1022.62
2023-01-26T04:50:59.363Z,1022.62
2023-01-26T04:51:31.557Z,1022.62
2023-01-26T04:51:47.735Z,1022.62
2023-01-26T04:52:18.993Z,1022.62
2023-01-26T04:52:41.276Z,1022.62
2023-01-26T04:53:07.604Z,1022.62
2023-01-26T04:53:38.815Z,1022.62
2023-01-26T04:54:11.106Z,1022.52
2023-01-26T04:54:27.608Z,1022.52
2023-01-26T04:54:58.809Z,1022.62
2023-01-26T04:55:31.888Z,1022.62
2023-01-26T04:55:48.629Z,1022.62
2023-01-26T04:56:19.084Z,1022.62
2023-01-26T04:56:41.041Z,1022.62
2023-01-26T04:57:07.591Z,1022.62
2023-01-26T04:57:38.984Z,1022.62
2023-01-26T04:58:11.184Z,1022.72
2023-01-26T04:58:27.561Z,1022.72
2023-01-26T04:58:58.751Z,1022.62
2023-01-26T04:59:31.246Z,1022.62
2023-01-26T04:59:47.764Z,1022.62
2023-01-26T05:00:19.952Z,1022.62
2023-01-26T05:00:40.772Z,1022.52
2023-01-26T05:01:08.018Z,1022.52
2023-01-26T05:01:38.941Z,1022.52
2023-01-26T05:02:11.336Z,1022.42
2023-01-26T05:02:27.521Z,1022.42
2023-01-26T05:02:59.284Z,1022.52
2023-01-26T05:03:31.267Z,1022.52
2023-01-26T05:03:48.335Z,1022.72
2023-01-26T05:04:19.338Z,1022.72
2023-01-26T05:04:40.745Z,1022.72
2023-01-26T05:05:08.199Z,1022.72
2023-01-26T05:05:39.048Z,1022.72
2023-01-26T05:06:11.149Z,1022.72
2023-01-26T05:06:36.767Z,1022.62
2023-01-26T05:06:58.878Z,1022.62
2023-01-26T05:07:31.264Z,1022.62
2023-01-26T05:07:48.352Z,1022.72
2023-01-26T05:08:19.005Z,1022.72
2023-01-26T05:08:40.970Z,1022.62
2023-01-26T05:09:07.586Z,1022.62
2023-01-26T05:09:38.814Z,1022.62
2023-01-26T05:10:14.631Z,1022.52
2023-01-26T05:10:36.701Z,1022.52
2023-01-26T05:10:59.203Z,1022.52
2023-01-26T05:11:31.407Z,1022.52
2023-01-26T05:11:47.963Z,1022.62
2023-01-26T05:12:18.860Z,1022.62
2023-01-26T05:12:40.752Z,1022.52
2023-01-26T05:13:07.509Z,1022.52
2023-01-26T05:13:38.933Z,1022.52
2023-01-26T05:14:11.169Z,1022.62
2023-01-26T05:14:36.610Z,1022.62
2023-01-26T05:14:58.854Z,1022.62
2023-01-26T05:15:32.292Z,1022.62
2023-01-26T05:15:48.517Z,1022.62
2023-01-26T05:16:18.967Z,1022.62
2023-01-26T05:16:41.019Z,1022.62
2023-01-26T05:17:07.519Z,1022.62
2023-01-26T05:17:38.917Z,1022.62
2023-01-26T05:18:11.093Z,1022.72
2023-01-26T05:18:36.470Z,1022.62
2023-01-26T05:18:58.787Z,1022.62
2023-01-26T05:19:31.518Z,1022.62
2023-01-26T05:19:48.071Z,1022.62
2023-01-26T05:20:19.224Z,1022.62
2023-01-26T05:20:41.458Z,1022.72
2023-01-26T05:21:07.528Z,1022.72
2023-01-26T05:21:38.815Z,1022.72
2023-01-26T05:22:12.591Z,1022.72
2023-01-26T05:22:36.641Z,1022.42
2023-01-26T05:22:58.824Z,1022.42
2023-01-26T05:23:31.404Z,1022.42
2023-01-26T05:23:48.333Z,1022.52
2023-01-26T05:24:19.040Z,1022.52
2023-01-26T05:24:40.832Z,1022.42
2023-01-26T05:25:07.855Z,1022.42
2023-01-26T05:25:38.932Z,1022.42
2023-01-26T05:26:11.480Z,1022.52
2023-01-26T05:26:27.654Z,1022.52
2023-01-26T05:26:58.782Z,1022.52
2023-01-26T05:27:31.640Z,1022.52
2023-01-26T05:27:48.023Z,1022.52
2023-01-26T05:28:18.990Z,1022.52
2023-01-26T05:28:41.005Z,1022.52
2023-01-26T05:29:07.584Z,1022.52
2023-01-26T05:29:38.839Z,1022.52
2023-01-26T05:30:14.571Z,1022.92
2023-01-26T05:30:36.844Z,1022.42
2023-01-26T05:30:59.862Z,1022.42
2023-01-26T05:31:31.272Z,1022.42
2023-01-26T05:31:48.024Z,1022.62
2023-01-26T05:32:18.857Z,1022.62
2023-01-26T05:32:40.934Z,1022.52